sensor_id;sensor_type;location;lat;lon;timestamp;temperature;humidity
71649;SHT31;59492;45.638;11.714;2023-05-10T16:12:35;25.46;49.10
71649;SHT31;59492;45.638;11.714;2023-05-10T16:15:01;24.40;51.59
71649;SHT31;59492;45.638;11.714;2023-05-10T18:43:36;21.38;61.04
71649;SHT31;59492;45.638;11.714;2023-05-10T18:46:01;21.37;60.63
71649;SHT31;59492;45.638;11.714;2023-05-10T18:48:27;21.31;60.61
71649;SHT31;59492;45.638;11.714;2023-05-10T18:50:53;21.28;60.69
71649;SHT31;59492;45.638;11.714;2023-05-10T18:53:19;21.28;60.74
71649;SHT31;59492;45.638;11.714;2023-05-10T18:55:44;21.27;60.78
71649;SHT31;59492;45.638;11.714;2023-05-10T18:58:10;21.27;60.80
71649;SHT31;59492;45.638;11.714;2023-05-10T19:00:36;21.29;60.83
71649;SHT31;59492;45.638;11.714;2023-05-10T19:03:02;21.30;60.80
71649;SHT31;59492;45.638;11.714;2023-05-10T19:05:28;21.32;60.83
71649;SHT31;59492;45.638;11.714;2023-05-10T19:07:55;21.35;60.82
71649;SHT31;59492;45.638;11.714;2023-05-10T19:10:21;21.37;60.80
71649;SHT31;59492;45.638;11.714;2023-05-10T19:12:47;21.39;60.74
71649;SHT31;59492;45.638;11.714;2023-05-10T19:15:13;21.41;60.71
71649;SHT31;59492;45.638;11.714;2023-05-10T19:17:44;21.44;60.69
71649;SHT31;59492;45.638;11.714;2023-05-10T19:20:11;21.47;60.68
71649;SHT31;59492;45.638;11.714;2023-05-10T19:22:37;21.48;60.63
71649;SHT31;59492;45.638;11.714;2023-05-10T19:25:03;21.51;60.59
71649;SHT31;59492;45.638;11.714;2023-05-10T19:27:30;21.52;60.54
71649;SHT31;59492;45.638;11.714;2023-05-10T19:29:56;21.54;60.52
71649;SHT31;59492;45.638;11.714;2023-05-10T19:32:22;21.56;60.49
71649;SHT31;59492;45.638;11.714;2023-05-10T19:34:48;21.58;60.47
71649;SHT31;59492;45.638;11.714;2023-05-10T19:37:14;21.59;60.40
71649;SHT31;59492;45.638;11.714;2023-05-10T19:39:40;21.61;60.36
71649;SHT31;59492;45.638;11.714;2023-05-10T19:42:06;21.63;60.31
71649;SHT31;59492;45.638;11.714;2023-05-10T19:44:32;21.64;60.30
71649;SHT31;59492;45.638;11.714;2023-05-10T19:46:59;21.66;60.29
71649;SHT31;59492;45.638;11.714;2023-05-10T19:49:25;21.68;60.23
71649;SHT31;59492;45.638;11.714;2023-05-10T19:51:53;21.68;60.18
71649;SHT31;59492;45.638;11.714;2023-05-10T19:54:20;21.70;60.18
71649;SHT31;59492;45.638;11.714;2023-05-10T19:56:46;21.71;60.18
71649;SHT31;59492;45.638;11.714;2023-05-10T19:59:13;21.72;60.17
71649;SHT31;59492;45.638;11.714;2023-05-10T20:01:39;21.73;60.16
71649;SHT31;59492;45.638;11.714;2023-05-10T20:04:09;21.74;60.13
71649;SHT31;59492;45.638;11.714;2023-05-10T20:06:35;21.75;60.13
71649;SHT31;59492;45.638;11.714;2023-05-10T20:09:01;21.76;60.11
71649;SHT31;59492;45.638;11.714;2023-05-10T20:11:27;21.76;60.10
71649;SHT31;59492;45.638;11.714;2023-05-10T20:13:54;21.77;60.10
71649;SHT31;59492;45.638;11.714;2023-05-10T20:16:20;21.78;60.11
71649;SHT31;59492;45.638;11.714;2023-05-10T20:18:47;21.79;60.13
71649;SHT31;59492;45.638;11.714;2023-05-10T20:21:13;21.79;60.10
71649;SHT31;59492;45.638;11.714;2023-05-10T20:23:40;21.80;60.06
71649;SHT31;59492;45.638;11.714;2023-05-10T20:26:06;21.80;60.05
71649;SHT31;59492;45.638;11.714;2023-05-10T20:28:32;21.81;60.03
71649;SHT31;59492;45.638;11.714;2023-05-10T20:30:58;21.82;60.07
71649;SHT31;59492;45.638;11.714;2023-05-10T20:33:26;21.82;60.04
71649;SHT31;59492;45.638;11.714;2023-05-10T20:35:54;21.82;60.03
71649;SHT31;59492;45.638;11.714;2023-05-10T20:38:23;21.83;60.02
71649;SHT31;59492;45.638;11.714;2023-05-10T20:40:49;21.82;60.05
71649;SHT31;59492;45.638;11.714;2023-05-10T20:43:15;21.83;60.09
71649;SHT31;59492;45.638;11.714;2023-05-10T20:45:41;21.83;60.10
71649;SHT31;59492;45.638;11.714;2023-05-10T20:48:07;21.83;60.11
71649;SHT31;59492;45.638;11.714;2023-05-10T20:50:33;21.83;60.18
71649;SHT31;59492;45.638;11.714;2023-05-10T20:53:00;21.83;60.20
71649;SHT31;59492;45.638;11.714;2023-05-10T20:55:27;21.84;60.21
71649;SHT31;59492;45.638;11.714;2023-05-10T20:57:53;21.83;60.29
71649;SHT31;59492;45.638;11.714;2023-05-10T21:00:19;21.84;60.31
71649;SHT31;59492;45.638;11.714;2023-05-10T21:02:45;21.83;60.36
71649;SHT31;59492;45.638;11.714;2023-05-10T21:05:11;21.82;60.40
71649;SHT31;59492;45.638;11.714;2023-05-10T21:07:36;21.82;60.42
71649;SHT31;59492;45.638;11.714;2023-05-10T21:10:04;21.82;60.45
71649;SHT31;59492;45.638;11.714;2023-05-10T21:12:32;21.81;60.51
71649;SHT31;59492;45.638;11.714;2023-05-10T21:14:58;21.81;60.50
71649;SHT31;59492;45.638;11.714;2023-05-10T21:17:24;21.82;60.60
71649;SHT31;59492;45.638;11.714;2023-05-10T21:19:49;21.81;60.60
71649;SHT31;59492;45.638;11.714;2023-05-10T21:22:15;21.82;60.68
71649;SHT31;59492;45.638;11.714;2023-05-10T21:24:41;21.81;60.70
71649;SHT31;59492;45.638;11.714;2023-05-10T21:27:07;21.81;60.72
71649;SHT31;59492;45.638;11.714;2023-05-10T21:29:33;21.81;60.79
71649;SHT31;59492;45.638;11.714;2023-05-10T21:31:59;21.80;60.82
71649;SHT31;59492;45.638;11.714;2023-05-10T21:34:25;21.80;60.90
71649;SHT31;59492;45.638;11.714;2023-05-10T21:36:51;21.79;60.89
71649;SHT31;59492;45.638;11.714;2023-05-10T21:39:18;21.79;60.92
71649;SHT31;59492;45.638;11.714;2023-05-10T21:41:43;21.78;60.97
71649;SHT31;59492;45.638;11.714;2023-05-10T21:44:09;21.79;61.01
71649;SHT31;59492;45.638;11.714;2023-05-10T21:46:35;21.78;61.07
71649;SHT31;59492;45.638;11.714;2023-05-10T21:49:01;21.77;61.10
71649;SHT31;59492;45.638;11.714;2023-05-10T21:51:27;21.76;61.17
71649;SHT31;59492;45.638;11.714;2023-05-10T21:53:53;21.77;61.21
71649;SHT31;59492;45.638;11.714;2023-05-10T21:56:19;21.76;61.31
71649;SHT31;59492;45.638;11.714;2023-05-10T21:58:45;21.76;61.36
71649;SHT31;59492;45.638;11.714;2023-05-10T22:01:10;21.76;61.42
71649;SHT31;59492;45.638;11.714;2023-05-10T22:03:38;21.76;61.49
71649;SHT31;59492;45.638;11.714;2023-05-10T22:06:04;21.75;61.51
71649;SHT31;59492;45.638;11.714;2023-05-10T22:08:30;21.75;61.59
71649;SHT31;59492;45.638;11.714;2023-05-10T22:10:56;21.75;61.61
71649;SHT31;59492;45.638;11.714;2023-05-10T22:13:21;21.75;61.70
71649;SHT31;59492;45.638;11.714;2023-05-10T22:15:47;21.75;61.72
71649;SHT31;59492;45.638;11.714;2023-05-10T22:18:13;21.75;61.77
71649;SHT31;59492;45.638;11.714;2023-05-10T22:20:39;21.74;61.85
71649;SHT31;59492;45.638;11.714;2023-05-10T22:23:04;21.75;61.90
71649;SHT31;59492;45.638;11.714;2023-05-10T22:25:30;21.73;61.97
71649;SHT31;59492;45.638;11.714;2023-05-10T22:27:56;21.72;62.06
71649;SHT31;59492;45.638;11.714;2023-05-10T22:30:22;21.73;62.14
71649;SHT31;59492;45.638;11.714;2023-05-10T22:32:48;21.72;62.19
71649;SHT31;59492;45.638;11.714;2023-05-10T22:35:13;21.73;62.21
71649;SHT31;59492;45.638;11.714;2023-05-10T22:37:39;21.71;62.29
71649;SHT31;59492;45.638;11.714;2023-05-10T22:40:06;21.71;62.39
71649;SHT31;59492;45.638;11.714;2023-05-10T22:42:32;21.70;62.46
71649;SHT31;59492;45.638;11.714;2023-05-10T22:44:58;21.70;62.50
71649;SHT31;59492;45.638;11.714;2023-05-10T22:47:24;21.70;62.54
71649;SHT31;59492;45.638;11.714;2023-05-10T22:49:49;21.70;62.59
71649;SHT31;59492;45.638;11.714;2023-05-10T22:52:15;21.70;62.60
71649;SHT31;59492;45.638;11.714;2023-05-10T22:54:41;21.69;62.70
71649;SHT31;59492;45.638;11.714;2023-05-10T22:57:08;21.69;62.77
71649;SHT31;59492;45.638;11.714;2023-05-10T22:59:34;21.69;62.86
71649;SHT31;59492;45.638;11.714;2023-05-10T23:01:59;21.69;62.90
71649;SHT31;59492;45.638;11.714;2023-05-10T23:04:25;21.69;62.90
71649;SHT31;59492;45.638;11.714;2023-05-10T23:06:51;21.68;62.98
71649;SHT31;59492;45.638;11.714;2023-05-10T23:09:17;21.68;63.03
71649;SHT31;59492;45.638;11.714;2023-05-10T23:11:43;21.67;63.10
71649;SHT31;59492;45.638;11.714;2023-05-10T23:14:09;21.67;63.12
71649;SHT31;59492;45.638;11.714;2023-05-10T23:16:35;21.66;63.23
71649;SHT31;59492;45.638;11.714;2023-05-10T23:19:00;21.67;63.31
71649;SHT31;59492;45.638;11.714;2023-05-10T23:21:26;21.65;63.33
71649;SHT31;59492;45.638;11.714;2023-05-10T23:23:52;21.65;63.41
71649;SHT31;59492;45.638;11.714;2023-05-10T23:26:18;21.66;63.50
71649;SHT31;59492;45.638;11.714;2023-05-10T23:28:45;21.65;63.50
71649;SHT31;59492;45.638;11.714;2023-05-10T23:31:11;21.65;63.51
71649;SHT31;59492;45.638;11.714;2023-05-10T23:33:37;21.64;63.50
71649;SHT31;59492;45.638;11.714;2023-05-10T23:36:02;21.63;63.50
71649;SHT31;59492;45.638;11.714;2023-05-10T23:38:28;21.64;63.58
71649;SHT31;59492;45.638;11.714;2023-05-10T23:40:54;21.63;63.71
71649;SHT31;59492;45.638;11.714;2023-05-10T23:43:20;21.62;63.78
71649;SHT31;59492;45.638;11.714;2023-05-10T23:45:52;21.63;63.80
71649;SHT31;59492;45.638;11.714;2023-05-10T23:48:22;21.62;63.90
71649;SHT31;59492;45.638;11.714;2023-05-10T23:50:48;21.62;63.99
71649;SHT31;59492;45.638;11.714;2023-05-10T23:53:14;21.60;64.00
71649;SHT31;59492;45.638;11.714;2023-05-10T23:55:40;21.61;64.00
71649;SHT31;59492;45.638;11.714;2023-05-10T23:58:06;21.60;64.04
